createdAt,value
2023-07-07T00:01:46.168Z,12.70
2023-07-07T00:04:14.817Z,12.40
2023-07-07T00:06:44.218Z,12.40
2023-07-07T00:09:12.407Z,12.80
2023-07-07T00:11:40.389Z,12.30
2023-07-07T00:14:09.717Z,12.30
2023-07-07T00:16:39.458Z,13.00
2023-07-07T00:19:11.268Z,12.20
2023-07-07T00:21:39.259Z,12.20
2023-07-07T00:24:09.478Z,12.10
2023-07-07T00:26:37.476Z,12.10
2023-07-07T00:29:05.458Z,12.10
2023-07-07T00:31:33.480Z,12.00
2023-07-07T00:34:01.512Z,12.00
2023-07-07T00:36:29.594Z,12.00
2023-07-07T00:38:57.653Z,12.10
2023-07-07T00:41:29.068Z,11.90
2023-07-07T00:44:04.991Z,11.90
2023-07-07T00:46:33.662Z,11.90
2023-07-07T00:49:05.813Z,11.90
2023-07-07T00:51:36.473Z,11.90
2023-07-07T00:54:08.426Z,11.90
2023-07-07T00:56:41.094Z,11.90
2023-07-07T00:59:12.983Z,11.80
2023-07-07T01:01:41.770Z,11.90
2023-07-07T01:04:13.994Z,12.30
2023-07-07T01:06:45.962Z,11.80
2023-07-07T01:09:14.121Z,11.70
2023-07-07T01:11:43.887Z,11.60
2023-07-07T01:14:15.158Z,11.60
2023-07-07T01:17:03.161Z,11.60
2023-07-07T01:20:09.194Z,11.60
2023-07-07T01:23:13.007Z,11.60
2023-07-07T01:26:03.855Z,11.60
2023-07-07T01:28:54.692Z,11.60
2023-07-07T01:31:29.300Z,12.10
2023-07-07T01:33:57.822Z,11.60
2023-07-07T01:36:25.859Z,11.60
2023-07-07T01:38:54.078Z,11.40
2023-07-07T01:41:29.549Z,11.90
2023-07-07T01:44:05.929Z,11.50
2023-07-07T01:46:40.317Z,11.50
2023-07-07T01:49:14.491Z,11.50
2023-07-07T01:51:47.230Z,11.40
2023-07-07T01:54:16.657Z,11.50
2023-07-07T01:56:46.323Z,11.60
2023-07-07T01:59:15.342Z,11.40
2023-07-07T02:01:46.135Z,11.40
2023-07-07T02:04:14.228Z,11.40
2023-07-07T02:06:42.405Z,11.30
2023-07-07T02:09:10.395Z,11.30
2023-07-07T02:11:38.370Z,11.40
2023-07-07T02:14:06.363Z,11.30
2023-07-07T02:16:34.397Z,11.20
2023-07-07T02:19:04.055Z,11.20
2023-07-07T02:21:32.141Z,11.20
2023-07-07T02:24:00.093Z,11.20
2023-07-07T02:26:28.195Z,11.20
2023-07-07T02:28:56.189Z,11.20
2023-07-07T02:31:25.624Z,11.20
2023-07-07T02:33:53.986Z,11.10
2023-07-07T02:36:25.720Z,11.20
2023-07-07T02:38:55.068Z,11.30
2023-07-07T02:41:23.769Z,11.10
2023-07-07T02:43:54.279Z,11.80
2023-07-07T02:46:22.781Z,11.60
2023-07-07T02:48:50.835Z,11.20
2023-07-07T02:51:18.872Z,11.10
2023-07-07T02:53:48.331Z,11.00
2023-07-07T02:56:16.307Z,10.80
2023-07-07T02:58:44.338Z,11.00
2023-07-07T03:01:15.296Z,11.00
2023-07-07T03:03:45.995Z,11.00
2023-07-07T03:06:17.829Z,11.00
2023-07-07T03:08:47.452Z,11.00
2023-07-07T03:11:19.592Z,11.00
2023-07-07T03:13:48.899Z,10.90
2023-07-07T03:16:21.878Z,10.90
2023-07-07T03:18:54.510Z,10.90
2023-07-07T03:21:24.961Z,10.90
2023-07-07T03:23:54.874Z,10.80
2023-07-07T03:26:24.196Z,10.90
2023-07-07T03:28:52.784Z,10.90
2023-07-07T03:31:23.935Z,10.90
2023-07-07T03:33:53.827Z,10.80
2023-07-07T03:36:23.825Z,10.80
2023-07-07T03:38:51.970Z,10.80
2023-07-07T03:41:24.378Z,10.90
2023-07-07T03:43:54.426Z,10.80
2023-07-07T03:46:24.394Z,10.80
2023-07-07T03:48:54.661Z,10.80
2023-07-07T03:51:24.168Z,10.80
2023-07-07T03:53:52.836Z,10.90
2023-07-07T03:56:22.518Z,10.80
2023-07-07T03:58:50.867Z,10.80
2023-07-07T04:01:19.057Z,10.80
2023-07-07T04:03:48.377Z,10.80
2023-07-07T04:06:17.067Z,10.90
2023-07-07T04:08:45.614Z,10.80
2023-07-07T04:11:15.358Z,10.90
2023-07-07T04:13:49.147Z,10.90
2023-07-07T04:16:20.499Z,10.90
2023-07-07T04:18:49.461Z,10.90
2023-07-07T04:21:19.806Z,11.80
2023-07-07T04:23:50.016Z,11.30
2023-07-07T04:26:20.057Z,11.10
2023-07-07T04:28:49.922Z,11.10
2023-07-07T04:31:17.985Z,11.20
2023-07-07T04:33:46.035Z,11.30
2023-07-07T04:36:14.392Z,11.30
2023-07-07T04:38:42.576Z,11.40
2023-07-07T04:41:12.720Z,11.40
2023-07-07T04:43:42.178Z,11.60
2023-07-07T04:46:14.255Z,11.60
2023-07-07T04:48:42.474Z,11.70
2023-07-07T04:51:11.829Z,11.80
2023-07-07T04:53:42.157Z,11.70
2023-07-07T04:56:12.082Z,11.80
2023-07-07T04:58:41.744Z,11.80
2023-07-07T05:01:13.812Z,12.00
2023-07-07T05:03:43.613Z,12.10
2023-07-07T05:06:12.331Z,12.20
2023-07-07T05:08:42.606Z,12.30
2023-07-07T05:11:12.759Z,12.40
2023-07-07T05:13:41.102Z,12.50
2023-07-07T05:16:12.368Z,12.60
2023-07-07T05:18:40.887Z,12.70
2023-07-07T05:21:10.497Z,12.80
2023-07-07T05:23:39.215Z,12.80
2023-07-07T05:26:07.917Z,12.90
2023-07-07T05:28:36.328Z,13.00
2023-07-07T05:31:06.357Z,13.10
2023-07-07T05:33:36.477Z,13.00
2023-07-07T05:36:06.520Z,13.30
2023-07-07T05:38:34.588Z,13.40
2023-07-07T05:41:02.858Z,13.50
2023-07-07T05:43:31.053Z,13.60
2023-07-07T05:46:00.680Z,13.60
2023-07-07T05:48:29.337Z,13.80
2023-07-07T05:51:00.741Z,13.90
2023-07-07T05:53:29.355Z,14.10
2023-07-07T05:56:04.753Z,14.20
2023-07-07T05:58:33.230Z,14.30
2023-07-07T06:01:01.374Z,14.50
2023-07-07T06:03:30.215Z,14.60
2023-07-07T06:05:59.745Z,14.70
2023-07-07T06:08:27.720Z,14.80
2023-07-07T06:10:55.782Z,14.90
2023-07-07T06:13:25.508Z,15.10
2023-07-07T06:15:54.251Z,15.20
2023-07-07T06:18:23.138Z,15.30
2023-07-07T06:20:51.949Z,15.40
2023-07-07T06:23:21.379Z,15.60
2023-07-07T06:25:49.976Z,15.70
2023-07-07T06:28:18.654Z,15.90
2023-07-07T06:30:49.124Z,16.10
2023-07-07T06:33:18.976Z,16.10
2023-07-07T06:35:48.677Z,16.30
2023-07-07T06:38:16.848Z,16.40
2023-07-07T06:40:48.610Z,16.60
2023-07-07T06:43:19.305Z,16.80
2023-07-07T06:45:49.797Z,16.90
2023-07-07T06:48:17.772Z,17.10
2023-07-07T06:50:45.739Z,17.20
2023-07-07T06:53:13.676Z,17.40
2023-07-07T06:55:42.038Z,17.50
2023-07-07T06:58:13.631Z,17.70
2023-07-07T07:00:42.509Z,17.80
2023-07-07T07:03:10.754Z,18.00
2023-07-07T07:05:38.878Z,18.20
2023-07-07T07:08:06.949Z,18.30
2023-07-07T07:10:35.072Z,18.50
2023-07-07T07:13:03.045Z,18.70
2023-07-07T07:15:32.622Z,18.80
2023-07-07T07:18:00.848Z,19.00
2023-07-07T07:20:29.502Z,19.20
2023-07-07T07:22:57.531Z,19.30
2023-07-07T07:25:25.591Z,19.50
2023-07-07T07:27:53.618Z,19.60
2023-07-07T07:30:21.601Z,19.70
2023-07-07T07:32:51.005Z,19.80
2023-07-07T07:35:19.344Z,20.00
2023-07-07T07:37:47.346Z,20.10
2023-07-07T07:40:15.474Z,20.20
2023-07-07T07:42:43.544Z,20.40
2023-07-07T07:45:18.652Z,20.50
2023-07-07T07:47:47.245Z,20.70
2023-07-07T07:50:18.573Z,20.80
2023-07-07T07:52:46.981Z,21.00
2023-07-07T07:55:16.291Z,21.10
2023-07-07T07:57:44.649Z,21.30
2023-07-07T08:00:13.491Z,21.50
2023-07-07T08:02:41.999Z,21.60
2023-07-07T08:05:11.047Z,21.80
2023-07-07T08:07:40.418Z,22.00
2023-07-07T08:10:09.636Z,22.10
2023-07-07T08:12:37.707Z,22.30
2023-07-07T08:15:06.614Z,22.40
2023-07-07T08:17:35.193Z,22.60
2023-07-07T08:20:04.035Z,22.80
2023-07-07T08:22:31.995Z,22.90
2023-07-07T08:25:01.340Z,23.20
2023-07-07T08:30:00.836Z,23.60
2023-07-07T08:32:28.922Z,24.00
2023-07-07T08:34:57.189Z,24.30
2023-07-07T08:37:26.669Z,24.60
2023-07-07T08:39:54.678Z,25.20
2023-07-07T08:42:29.347Z,25.80
2023-07-07T08:44:59.522Z,26.90
2023-07-07T08:47:47.023Z,27.80
2023-07-07T08:50:29.745Z,28.80
2023-07-07T08:53:07.119Z,29.60
2023-07-07T08:55:45.702Z,30.50
2023-07-07T08:58:29.059Z,31.30
2023-07-07T09:01:13.029Z,31.40
2023-07-07T09:03:53.843Z,31.60
2023-07-07T09:06:32.900Z,32.40
2023-07-07T09:09:10.968Z,33.00
2023-07-07T09:12:03.708Z,32.80
2023-07-07T09:14:33.446Z,33.00
2023-07-07T09:17:07.219Z,33.20
2023-07-07T09:19:40.075Z,33.70
2023-07-07T09:22:13.671Z,34.10
2023-07-07T09:24:48.099Z,34.40
2023-07-07T09:27:19.858Z,34.80
2023-07-07T09:29:56.464Z,34.90
2023-07-07T09:32:25.124Z,34.30
2023-07-07T09:34:53.293Z,34.30
2023-07-07T09:37:32.782Z,34.60
2023-07-07T09:40:12.824Z,35.00
2023-07-07T09:42:50.032Z,35.10
2023-07-07T09:45:30.953Z,35.20
2023-07-07T09:48:07.186Z,35.30
2023-07-07T09:50:42.115Z,35.20
2023-07-07T09:53:23.670Z,35.50
2023-07-07T09:55:53.941Z,35.40
2023-07-07T09:58:25.678Z,35.60
2023-07-07T10:00:57.892Z,35.50
2023-07-07T10:03:30.741Z,35.60
2023-07-07T10:06:01.924Z,35.50
2023-07-07T10:08:30.645Z,35.50
2023-07-07T10:11:43.963Z,35.20
2023-07-07T10:13:59.372Z,34.50
2023-07-07T10:16:41.396Z,33.50
2023-07-07T10:19:10.714Z,33.70
2023-07-07T10:21:39.522Z,34.00
2023-07-07T10:24:07.943Z,34.10
2023-07-07T10:26:35.932Z,34.10
2023-07-07T10:29:05.346Z,34.20
2023-07-07T10:31:34.913Z,34.50
2023-07-07T10:34:16.555Z,34.40
2023-07-07T10:36:44.662Z,34.70
2023-07-07T10:39:13.048Z,34.70
2023-07-07T10:41:42.530Z,34.80
2023-07-07T10:44:10.837Z,34.70
2023-07-07T10:46:40.450Z,35.00
2023-07-07T10:49:15.423Z,35.00
2023-07-07T10:51:53.994Z,34.80
2023-07-07T10:54:31.382Z,34.30
2023-07-07T10:57:08.847Z,34.60
2023-07-07T10:59:55.657Z,35.00
2023-07-07T11:02:51.312Z,34.60
2023-07-07T11:05:58.556Z,35.00
2023-07-07T11:08:39.747Z,35.30
2023-07-07T11:11:21.625Z,35.30
2023-07-07T11:14:08.269Z,35.20
2023-07-07T11:16:43.322Z,35.20
2023-07-07T11:19:29.464Z,35.50
2023-07-07T11:22:05.254Z,35.60
2023-07-07T11:27:34.179Z,34.90
2023-07-07T11:30:13.169Z,34.70
2023-07-07T11:32:49.107Z,34.30
2023-07-07T11:35:28.650Z,34.00
2023-07-07T11:38:18.259Z,34.70
2023-07-07T11:41:03.952Z,35.50
2023-07-07T11:43:56.633Z,36.20
2023-07-07T11:46:47.742Z,36.40
2023-07-07T11:49:36.479Z,36.20
2023-07-07T11:52:19.334Z,36.10
2023-07-07T11:55:02.626Z,35.80
2023-07-07T11:57:48.001Z,36.00
2023-07-07T12:00:34.705Z,36.10
2023-07-07T12:03:27.616Z,36.40
2023-07-07T12:05:58.082Z,36.00
2023-07-07T12:08:36.805Z,35.90
2023-07-07T12:11:09.037Z,35.30
2023-07-07T12:13:42.464Z,35.50
2023-07-07T12:16:19.548Z,35.50
2023-07-07T12:18:51.861Z,35.10
2023-07-07T12:21:23.785Z,34.90
2023-07-07T12:24:01.429Z,34.10
2023-07-07T12:26:34.814Z,33.50
2023-07-07T12:29:06.795Z,33.20
2023-07-07T12:31:35.405Z,32.90
2023-07-07T12:34:20.241Z,33.00
2023-07-07T12:36:50.009Z,32.90
2023-07-07T12:39:19.567Z,33.10
2023-07-07T12:41:47.730Z,33.00
2023-07-07T12:44:15.996Z,32.90
2023-07-07T12:46:44.442Z,32.90
2023-07-07T12:49:21.492Z,32.60
2023-07-07T12:51:56.726Z,32.50
2023-07-07T12:54:33.856Z,32.70
2023-07-07T12:57:04.203Z,32.70
2023-07-07T12:59:39.569Z,32.70
2023-07-07T13:02:20.347Z,32.70
2023-07-07T13:04:56.462Z,32.50
2023-07-07T13:07:30.831Z,32.70
2023-07-07T13:10:03.752Z,32.70
2023-07-07T13:12:45.894Z,32.80
2023-07-07T13:15:18.828Z,32.80
2023-07-07T13:17:47.135Z,33.00
2023-07-07T13:20:18.440Z,32.70
2023-07-07T13:22:51.887Z,32.90
2023-07-07T13:25:24.207Z,33.40
2023-07-07T13:27:55.713Z,33.70
2023-07-07T13:30:28.939Z,34.10
2023-07-07T13:32:57.190Z,33.90
2023-07-07T13:35:26.602Z,34.00
2023-07-07T13:38:06.555Z,34.10
2023-07-07T13:40:39.299Z,33.90
2023-07-07T13:43:13.799Z,33.80
2023-07-07T13:45:42.041Z,34.00
2023-07-07T13:48:18.756Z,34.20
2023-07-07T13:50:47.180Z,34.40
2023-07-07T13:53:15.307Z,34.60
2023-07-07T13:55:47.047Z,34.80
2023-07-07T13:58:19.089Z,34.90
2023-07-07T14:00:55.436Z,35.00
2023-07-07T14:03:24.225Z,34.40
2023-07-07T14:05:55.482Z,34.60
2023-07-07T14:08:26.485Z,34.40
2023-07-07T14:10:57.461Z,34.00
2023-07-07T14:13:33.479Z,33.40
2023-07-07T14:16:08.136Z,32.90
2023-07-07T14:18:39.601Z,32.90
2023-07-07T14:21:10.543Z,32.80
2023-07-07T14:23:42.916Z,32.60
2023-07-07T14:26:17.447Z,32.40
2023-07-07T14:28:46.654Z,32.60
2023-07-07T14:31:15.783Z,32.80
2023-07-07T14:33:47.962Z,33.10
2023-07-07T14:36:19.541Z,33.40
2023-07-07T14:38:53.688Z,33.50
2023-07-07T14:41:25.357Z,33.30
2023-07-07T14:43:54.422Z,33.20
2023-07-07T14:46:25.033Z,33.00
2023-07-07T14:48:54.700Z,33.00
2023-07-07T14:51:26.624Z,32.90
2023-07-07T14:53:57.559Z,32.40
2023-07-07T14:56:31.886Z,32.30
2023-07-07T14:59:01.606Z,32.50
2023-07-07T15:01:32.812Z,32.50
2023-07-07T15:04:07.596Z,32.60
2023-07-07T15:06:38.566Z,32.70
2023-07-07T15:09:07.533Z,32.70
2023-07-07T15:11:40.587Z,32.70
2023-07-07T15:14:12.942Z,32.60
2023-07-07T15:16:42.232Z,32.50
2023-07-07T15:19:18.113Z,32.20
2023-07-07T15:21:46.525Z,32.10
2023-07-07T15:24:15.061Z,31.80
2023-07-07T15:26:45.463Z,31.70
2023-07-07T15:29:18.178Z,31.90
2023-07-07T15:31:46.775Z,31.70
2023-07-07T15:34:14.816Z,31.80
2023-07-07T15:36:43.196Z,31.70
2023-07-07T15:39:14.001Z,31.80
2023-07-07T15:41:44.148Z,31.80
2023-07-07T15:44:12.210Z,31.70
2023-07-07T15:46:48.571Z,31.40
2023-07-07T15:49:19.254Z,31.30
2023-07-07T15:51:48.407Z,31.10
2023-07-07T15:54:16.619Z,31.10
2023-07-07T15:56:47.514Z,30.90
2023-07-07T15:59:18.707Z,30.60
2023-07-07T16:01:47.376Z,30.60
2023-07-07T16:04:16.769Z,30.60
2023-07-07T16:06:45.267Z,30.60
2023-07-07T16:09:14.811Z,30.60
2023-07-07T16:11:43.332Z,30.50
2023-07-07T16:14:12.876Z,30.60
2023-07-07T16:16:44.606Z,30.50
2023-07-07T16:19:13.403Z,30.40
2023-07-07T16:21:42.163Z,30.30
2023-07-07T16:24:10.269Z,29.90
2023-07-07T16:26:41.613Z,30.00
2023-07-07T16:29:13.924Z,30.00
2023-07-07T16:31:42.365Z,29.90
2023-07-07T16:34:12.304Z,29.80
2023-07-07T16:36:40.482Z,29.60
2023-07-07T16:39:14.016Z,29.40
2023-07-07T16:41:42.558Z,29.10
2023-07-07T16:44:12.064Z,29.20
2023-07-07T16:46:40.159Z,29.00
2023-07-07T16:49:12.513Z,28.90
2023-07-07T16:51:41.228Z,28.60
2023-07-07T16:54:09.532Z,28.50
2023-07-07T16:56:39.028Z,28.40
2023-07-07T16:59:14.440Z,28.10
2023-07-07T17:01:42.671Z,27.80
2023-07-07T17:04:10.864Z,27.60
2023-07-07T17:06:39.337Z,27.40
2023-07-07T17:09:13.794Z,27.10
2023-07-07T17:11:42.085Z,26.90
2023-07-07T17:14:10.276Z,26.60
2023-07-07T17:16:42.196Z,26.40
2023-07-07T17:19:19.560Z,26.10
2023-07-07T17:21:47.743Z,26.10
2023-07-07T17:24:16.000Z,25.90
2023-07-07T17:26:44.479Z,25.80
2023-07-07T17:29:15.226Z,25.80
2023-07-07T17:31:54.255Z,25.70
2023-07-07T17:34:37.635Z,25.60
2023-07-07T17:37:07.905Z,25.50
2023-07-07T17:40:15.553Z,25.40
2023-07-07T17:46:37.835Z,25.30
2023-07-07T17:49:18.582Z,25.20
2023-07-07T17:51:56.166Z,24.90
2023-07-07T17:54:27.255Z,25.00
2023-07-07T17:56:55.560Z,25.00
2023-07-07T17:59:26.492Z,25.00
2023-07-07T18:01:56.057Z,25.00
2023-07-07T18:04:25.742Z,24.90
2023-07-07T18:06:54.245Z,24.80
2023-07-07T18:09:22.410Z,24.70
2023-07-07T18:11:53.465Z,24.60
2023-07-07T18:14:22.411Z,24.60
2023-07-07T18:16:59.918Z,24.40
2023-07-07T18:20:08.440Z,24.30
2023-07-07T18:22:29.823Z,24.20
2023-07-07T18:24:58.157Z,24.20
2023-07-07T18:27:26.280Z,24.10
2023-07-07T18:29:54.422Z,24.00
2023-07-07T18:32:22.639Z,24.00
2023-07-07T18:34:52.142Z,23.90
2023-07-07T18:37:20.250Z,23.80
2023-07-07T18:39:48.921Z,23.70
2023-07-07T18:42:17.975Z,23.60
2023-07-07T18:44:47.331Z,23.50
2023-07-07T18:47:18.045Z,23.40
2023-07-07T18:49:46.352Z,23.30
2023-07-07T18:52:16.239Z,23.20
2023-07-07T18:54:44.501Z,23.10
2023-07-07T18:57:12.907Z,23.00
2023-07-07T18:59:41.039Z,23.00
2023-07-07T19:02:15.006Z,22.80
2023-07-07T19:04:43.145Z,22.70
2023-07-07T19:07:11.295Z,22.60
2023-07-07T19:09:42.536Z,22.50
2023-07-07T19:12:12.303Z,22.40
2023-07-07T19:14:40.571Z,22.30
2023-07-07T19:17:10.982Z,22.20
2023-07-07T19:19:39.095Z,22.10
2023-07-07T19:22:10.994Z,22.00
2023-07-07T19:24:40.579Z,21.90
2023-07-07T19:27:11.460Z,21.90
2023-07-07T19:29:39.654Z,21.80
2023-07-07T19:32:16.008Z,21.80
2023-07-07T19:34:44.139Z,21.70
2023-07-07T19:37:12.544Z,21.60
2023-07-07T19:39:43.450Z,21.60
2023-07-07T19:42:13.155Z,21.50
2023-07-07T19:44:42.219Z,21.40
2023-07-07T19:47:13.342Z,21.30
2023-07-07T19:49:41.715Z,21.20
2023-07-07T19:52:17.793Z,20.80
2023-07-07T19:54:48.163Z,21.10
2023-07-07T19:57:21.205Z,21.00
2023-07-07T19:59:49.754Z,20.90
2023-07-07T20:02:19.638Z,20.80
2023-07-07T20:04:49.394Z,20.60
2023-07-07T20:07:17.543Z,20.50
2023-07-07T20:09:47.001Z,20.40
2023-07-07T20:12:18.354Z,20.30
2023-07-07T20:14:46.850Z,20.30
2023-07-07T20:17:15.086Z,20.20
2023-07-07T20:19:43.374Z,20.10
2023-07-07T20:22:13.814Z,20.00
2023-07-07T20:24:42.812Z,20.00
2023-07-07T20:27:13.247Z,19.90
2023-07-07T20:29:41.695Z,19.80
2023-07-07T20:32:14.956Z,19.80
2023-07-07T20:34:43.135Z,19.70
2023-07-07T20:37:13.843Z,19.70
2023-07-07T20:39:42.192Z,19.60
2023-07-07T20:42:13.868Z,19.60
2023-07-07T20:44:43.042Z,19.50
2023-07-07T20:47:12.703Z,19.50
2023-07-07T20:49:40.894Z,19.40
2023-07-07T20:52:12.547Z,19.30
2023-07-07T20:54:40.646Z,19.20
2023-07-07T20:57:19.276Z,19.10
2023-07-07T20:59:48.137Z,18.90
2023-07-07T21:02:16.301Z,18.80
2023-07-07T21:04:44.346Z,18.60
2023-07-07T21:07:14.570Z,18.60
2023-07-07T21:09:43.204Z,18.50
2023-07-07T21:12:12.697Z,18.40
2023-07-07T21:14:40.894Z,18.30
2023-07-07T21:17:14.153Z,18.10
2023-07-07T21:19:42.295Z,18.00
2023-07-07T21:22:11.775Z,17.90
2023-07-07T21:24:40.099Z,17.90
2023-07-07T21:27:12.181Z,17.90
2023-07-07T21:29:44.341Z,17.90
2023-07-07T21:32:13.511Z,17.90
2023-07-07T21:34:41.718Z,17.80
2023-07-07T21:37:11.790Z,17.70
2023-07-07T21:39:39.980Z,17.70
2023-07-07T21:42:13.804Z,17.50
2023-07-07T21:44:44.970Z,17.50
2023-07-07T21:47:15.593Z,17.30
2023-07-07T21:49:44.628Z,17.30
2023-07-07T21:52:15.819Z,17.30
2023-07-07T21:54:44.324Z,17.20
2023-07-07T21:57:32.111Z,17.20
2023-07-07T22:00:00.508Z,17.20
2023-07-07T22:02:29.005Z,17.20
2023-07-07T22:04:57.305Z,17.20
2023-07-07T22:07:25.528Z,17.20
2023-07-07T22:09:53.665Z,17.20
2023-07-07T22:12:23.372Z,17.20
2023-07-07T22:14:51.546Z,17.20
2023-07-07T22:17:19.711Z,17.20
2023-07-07T22:19:47.926Z,17.10
2023-07-07T22:22:16.103Z,17.10
2023-07-07T22:24:44.309Z,17.10
2023-07-07T22:27:15.660Z,17.00
2023-07-07T22:29:45.521Z,17.00
2023-07-07T22:32:14.594Z,17.00
2023-07-07T22:34:42.687Z,17.00
2023-07-07T22:37:12.826Z,17.00
2023-07-07T22:39:41.008Z,16.90
2023-07-07T22:42:13.413Z,16.90
2023-07-07T22:44:41.569Z,16.80
2023-07-07T22:47:12.059Z,16.80
2023-07-07T22:49:40.216Z,16.80
2023-07-07T22:52:13.048Z,16.70
2023-07-07T22:54:41.149Z,16.80
2023-07-07T22:57:12.701Z,16.70
2023-07-07T22:59:40.863Z,16.70
2023-07-07T23:02:12.706Z,16.70
2023-07-07T23:04:40.968Z,16.70
2023-07-07T23:07:12.826Z,16.70
2023-07-07T23:09:44.469Z,16.70
2023-07-07T23:12:14.668Z,16.70
2023-07-07T23:14:42.848Z,16.70
2023-07-07T23:17:24.093Z,16.70
2023-07-07T23:19:58.237Z,16.70
2023-07-07T23:22:28.515Z,16.60
2023-07-07T23:25:00.318Z,16.50
2023-07-07T23:27:35.389Z,16.40
2023-07-07T23:30:14.940Z,16.40
2023-07-07T23:32:44.561Z,16.40
2023-07-07T23:35:13.394Z,16.30
2023-07-07T23:37:44.601Z,16.30
2023-07-07T23:40:19.262Z,16.30
2023-07-07T23:42:47.411Z,16.30
2023-07-07T23:45:16.268Z,16.30
2023-07-07T23:47:49.707Z,16.30
2023-07-07T23:50:24.433Z,16.30
2023-07-07T23:52:52.534Z,16.30
2023-07-07T23:55:21.605Z,16.30
2023-07-07T23:57:49.628Z,16.30
